sensor_id;sensor_type;location;lat;lon;timestamp;P1;durP1;ratioP1;P2;durP2;ratioP2
47239;SDS011;32978;53.586;10.052;2023-06-04T00:00:23;5.57;;;4.68;;
47239;SDS011;32978;53.586;10.052;2023-06-04T00:05:20;5.55;;;4.45;;
47239;SDS011;32978;53.586;10.052;2023-06-04T00:10:18;7.20;;;4.70;;
47239;SDS011;32978;53.586;10.052;2023-06-04T00:15:15;7.40;;;4.60;;
47239;SDS011;32978;53.586;10.052;2023-06-04T00:20:12;6.55;;;4.93;;
47239;SDS011;32978;53.586;10.052;2023-06-04T00:25:09;6.03;;;5.03;;
47239;SDS011;32978;53.586;10.052;2023-06-04T00:30:06;6.60;;;4.88;;
47239;SDS011;32978;53.586;10.052;2023-06-04T00:35:02;8.38;;;5.35;;
47239;SDS011;32978;53.586;10.052;2023-06-04T00:39:59;8.98;;;5.20;;
47239;SDS011;32978;53.586;10.052;2023-06-04T00:44:55;9.95;;;6.75;;
47239;SDS011;32978;53.586;10.052;2023-06-04T00:49:56;11.70;;;7.00;;
47239;SDS011;32978;53.586;10.052;2023-06-04T00:54:52;10.90;;;6.68;;
47239;SDS011;32978;53.586;10.052;2023-06-04T00:59:50;10.98;;;6.10;;
47239;SDS011;32978;53.586;10.052;2023-06-04T01:04:51;9.05;;;5.93;;
47239;SDS011;32978;53.586;10.052;2023-06-04T01:09:49;8.23;;;5.72;;
47239;SDS011;32978;53.586;10.052;2023-06-04T01:14:46;9.70;;;6.32;;
47239;SDS011;32978;53.586;10.052;2023-06-04T01:19:51;9.60;;;6.32;;
47239;SDS011;32978;53.586;10.052;2023-06-04T01:24:55;10.63;;;5.95;;
47239;SDS011;32978;53.586;10.052;2023-06-04T01:29:52;10.20;;;5.72;;
47239;SDS011;32978;53.586;10.052;2023-06-04T01:34:52;7.55;;;5.43;;
47239;SDS011;32978;53.586;10.052;2023-06-04T01:39:49;8.70;;;5.47;;
47239;SDS011;32978;53.586;10.052;2023-06-04T01:44:45;9.35;;;5.35;;
47239;SDS011;32978;53.586;10.052;2023-06-04T01:49:42;6.95;;;5.10;;
47239;SDS011;32978;53.586;10.052;2023-06-04T01:54:38;8.90;;;5.47;;
47239;SDS011;32978;53.586;10.052;2023-06-04T01:59:37;7.47;;;5.30;;
47239;SDS011;32978;53.586;10.052;2023-06-04T02:04:34;8.82;;;5.18;;
47239;SDS011;32978;53.586;10.052;2023-06-04T02:09:32;7.90;;;4.82;;
47239;SDS011;32978;53.586;10.052;2023-06-04T02:14:28;6.60;;;5.28;;
47239;SDS011;32978;53.586;10.052;2023-06-04T02:19:25;7.32;;;5.20;;
47239;SDS011;32978;53.586;10.052;2023-06-04T02:24:24;7.25;;;5.25;;
47239;SDS011;32978;53.586;10.052;2023-06-04T02:29:21;8.70;;;4.90;;
47239;SDS011;32978;53.586;10.052;2023-06-04T02:34:17;8.32;;;5.18;;
47239;SDS011;32978;53.586;10.052;2023-06-04T02:39:14;6.68;;;5.13;;
47239;SDS011;32978;53.586;10.052;2023-06-04T02:44:10;5.38;;;4.32;;
47239;SDS011;32978;53.586;10.052;2023-06-04T02:49:06;5.32;;;4.30;;
47239;SDS011;32978;53.586;10.052;2023-06-04T02:54:03;5.95;;;4.55;;
47239;SDS011;32978;53.586;10.052;2023-06-04T02:58:59;5.18;;;4.60;;
47239;SDS011;32978;53.586;10.052;2023-06-04T03:03:56;6.95;;;4.45;;
47239;SDS011;32978;53.586;10.052;2023-06-04T03:08:53;6.10;;;4.45;;
47239;SDS011;32978;53.586;10.052;2023-06-04T03:13:50;5.97;;;4.45;;
47239;SDS011;32978;53.586;10.052;2023-06-04T03:18:47;7.38;;;4.60;;
47239;SDS011;32978;53.586;10.052;2023-06-04T03:23:44;10.82;;;4.45;;
47239;SDS011;32978;53.586;10.052;2023-06-04T03:28:40;5.07;;;4.20;;
47239;SDS011;32978;53.586;10.052;2023-06-04T03:33:37;6.25;;;4.68;;
47239;SDS011;32978;53.586;10.052;2023-06-04T03:38:33;5.70;;;3.92;;
47239;SDS011;32978;53.586;10.052;2023-06-04T03:43:29;6.57;;;4.43;;
47239;SDS011;32978;53.586;10.052;2023-06-04T03:48:26;6.70;;;4.85;;
47239;SDS011;32978;53.586;10.052;2023-06-04T03:53:22;5.78;;;4.75;;
47239;SDS011;32978;53.586;10.052;2023-06-04T03:58:18;6.03;;;4.28;;
47239;SDS011;32978;53.586;10.052;2023-06-04T04:03:17;7.07;;;4.38;;
47239;SDS011;32978;53.586;10.052;2023-06-04T04:08:14;7.57;;;4.40;;
47239;SDS011;32978;53.586;10.052;2023-06-04T04:13:12;7.22;;;4.15;;
47239;SDS011;32978;53.586;10.052;2023-06-04T04:18:08;5.53;;;4.00;;
47239;SDS011;32978;53.586;10.052;2023-06-04T04:23:06;5.75;;;4.10;;
47239;SDS011;32978;53.586;10.052;2023-06-04T04:28:04;7.82;;;4.45;;
47239;SDS011;32978;53.586;10.052;2023-06-04T04:33:04;9.10;;;4.50;;
47239;SDS011;32978;53.586;10.052;2023-06-04T04:38:04;5.57;;;4.40;;
47239;SDS011;32978;53.586;10.052;2023-06-04T04:43:00;4.90;;;4.30;;
47239;SDS011;32978;53.586;10.052;2023-06-04T04:47:56;6.60;;;4.43;;
47239;SDS011;32978;53.586;10.052;2023-06-04T04:52:53;8.40;;;5.18;;
47239;SDS011;32978;53.586;10.052;2023-06-04T04:57:49;8.65;;;4.95;;
47239;SDS011;32978;53.586;10.052;2023-06-04T05:02:45;6.80;;;4.57;;
47239;SDS011;32978;53.586;10.052;2023-06-04T05:07:42;6.93;;;4.60;;
47239;SDS011;32978;53.586;10.052;2023-06-04T05:12:38;11.68;;;4.63;;
47239;SDS011;32978;53.586;10.052;2023-06-04T05:17:35;7.10;;;4.55;;
47239;SDS011;32978;53.586;10.052;2023-06-04T05:22:31;4.97;;;4.38;;
47239;SDS011;32978;53.586;10.052;2023-06-04T05:27:28;6.85;;;4.63;;
47239;SDS011;32978;53.586;10.052;2023-06-04T05:32:24;9.57;;;4.80;;
47239;SDS011;32978;53.586;10.052;2023-06-04T05:37:24;7.68;;;5.05;;
47239;SDS011;32978;53.586;10.052;2023-06-04T05:42:23;8.80;;;4.80;;
47239;SDS011;32978;53.586;10.052;2023-06-04T05:47:20;7.75;;;5.13;;
47239;SDS011;32978;53.586;10.052;2023-06-04T05:52:17;8.02;;;4.90;;
47239;SDS011;32978;53.586;10.052;2023-06-04T05:57:13;7.65;;;5.00;;
47239;SDS011;32978;53.586;10.052;2023-06-04T06:02:09;7.68;;;5.25;;
47239;SDS011;32978;53.586;10.052;2023-06-04T06:07:06;10.05;;;4.72;;
47239;SDS011;32978;53.586;10.052;2023-06-04T06:12:02;9.57;;;5.35;;
47239;SDS011;32978;53.586;10.052;2023-06-04T06:16:59;9.77;;;4.47;;
47239;SDS011;32978;53.586;10.052;2023-06-04T06:21:56;8.80;;;4.50;;
47239;SDS011;32978;53.586;10.052;2023-06-04T06:26:54;8.27;;;4.95;;
47239;SDS011;32978;53.586;10.052;2023-06-04T06:31:51;10.55;;;4.82;;
47239;SDS011;32978;53.586;10.052;2023-06-04T06:36:47;6.63;;;4.78;;
47239;SDS011;32978;53.586;10.052;2023-06-04T06:41:45;12.23;;;5.50;;
47239;SDS011;32978;53.586;10.052;2023-06-04T06:46:41;9.25;;;4.55;;
47239;SDS011;32978;53.586;10.052;2023-06-04T06:51:37;6.35;;;4.75;;
47239;SDS011;32978;53.586;10.052;2023-06-04T06:56:34;10.63;;;5.30;;
47239;SDS011;32978;53.586;10.052;2023-06-04T07:01:30;6.47;;;4.72;;
47239;SDS011;32978;53.586;10.052;2023-06-04T07:06:28;4.63;;;4.13;;
47239;SDS011;32978;53.586;10.052;2023-06-04T07:11:25;7.20;;;5.20;;
47239;SDS011;32978;53.586;10.052;2023-06-04T07:16:21;6.75;;;4.95;;
47239;SDS011;32978;53.586;10.052;2023-06-04T07:21:18;8.98;;;4.97;;
47239;SDS011;32978;53.586;10.052;2023-06-04T07:26:16;5.72;;;4.78;;
47239;SDS011;32978;53.586;10.052;2023-06-04T07:31:17;5.18;;;4.20;;
47239;SDS011;32978;53.586;10.052;2023-06-04T07:36:13;4.85;;;4.35;;
47239;SDS011;32978;53.586;10.052;2023-06-04T07:41:10;6.60;;;5.07;;
47239;SDS011;32978;53.586;10.052;2023-06-04T07:46:06;9.07;;;5.30;;
47239;SDS011;32978;53.586;10.052;2023-06-04T07:51:03;7.90;;;4.63;;
47239;SDS011;32978;53.586;10.052;2023-06-04T07:56:00;6.25;;;4.55;;
47239;SDS011;32978;53.586;10.052;2023-06-04T08:00:57;8.23;;;5.28;;
47239;SDS011;32978;53.586;10.052;2023-06-04T08:05:53;6.25;;;4.78;;
47239;SDS011;32978;53.586;10.052;2023-06-04T08:10:49;8.02;;;4.82;;
47239;SDS011;32978;53.586;10.052;2023-06-04T08:15:46;6.47;;;4.55;;
47239;SDS011;32978;53.586;10.052;2023-06-04T08:20:42;6.50;;;4.47;;
47239;SDS011;32978;53.586;10.052;2023-06-04T08:25:38;5.00;;;4.50;;
47239;SDS011;32978;53.586;10.052;2023-06-04T08:30:35;5.43;;;4.50;;
47239;SDS011;32978;53.586;10.052;2023-06-04T08:35:32;5.18;;;4.13;;
47239;SDS011;32978;53.586;10.052;2023-06-04T08:40:31;6.88;;;4.57;;
47239;SDS011;32978;53.586;10.052;2023-06-04T08:45:27;5.53;;;4.10;;
47239;SDS011;32978;53.586;10.052;2023-06-04T08:50:24;5.22;;;4.03;;
47239;SDS011;32978;53.586;10.052;2023-06-04T08:55:24;7.13;;;4.65;;
47239;SDS011;32978;53.586;10.052;2023-06-04T09:00:20;7.60;;;5.50;;
47239;SDS011;32978;53.586;10.052;2023-06-04T09:05:21;7.40;;;4.00;;
47239;SDS011;32978;53.586;10.052;2023-06-04T09:10:18;6.85;;;4.20;;
47239;SDS011;32978;53.586;10.052;2023-06-04T09:15:15;4.70;;;4.20;;
47239;SDS011;32978;53.586;10.052;2023-06-04T09:20:18;6.80;;;4.05;;
47239;SDS011;32978;53.586;10.052;2023-06-04T09:25:21;6.13;;;4.45;;
47239;SDS011;32978;53.586;10.052;2023-06-04T09:30:18;5.60;;;3.85;;
47239;SDS011;32978;53.586;10.052;2023-06-04T09:35:15;6.68;;;4.47;;
47239;SDS011;32978;53.586;10.052;2023-06-04T09:40:13;9.48;;;4.55;;
47239;SDS011;32978;53.586;10.052;2023-06-04T09:45:13;5.03;;;4.20;;
47239;SDS011;32978;53.586;10.052;2023-06-04T09:50:29;6.13;;;4.15;;
47239;SDS011;32978;53.586;10.052;2023-06-04T09:55:26;7.45;;;4.30;;
47239;SDS011;32978;53.586;10.052;2023-06-04T10:00:23;6.78;;;4.18;;
47239;SDS011;32978;53.586;10.052;2023-06-04T10:05:20;5.70;;;4.50;;
47239;SDS011;32978;53.586;10.052;2023-06-04T10:10:19;6.43;;;4.35;;
47239;SDS011;32978;53.586;10.052;2023-06-04T10:15:16;5.28;;;4.40;;
47239;SDS011;32978;53.586;10.052;2023-06-04T10:20:13;6.45;;;4.95;;
47239;SDS011;32978;53.586;10.052;2023-06-04T10:25:10;6.28;;;4.97;;
47239;SDS011;32978;53.586;10.052;2023-06-04T10:30:06;5.85;;;4.95;;
47239;SDS011;32978;53.586;10.052;2023-06-04T10:35:03;5.97;;;4.88;;
47239;SDS011;32978;53.586;10.052;2023-06-04T10:40:00;5.88;;;5.25;;
47239;SDS011;32978;53.586;10.052;2023-06-04T10:44:57;5.93;;;5.30;;
47239;SDS011;32978;53.586;10.052;2023-06-04T10:49:54;6.97;;;5.20;;
47239;SDS011;32978;53.586;10.052;2023-06-04T10:54:50;5.95;;;4.88;;
47239;SDS011;32978;53.586;10.052;2023-06-04T10:59:56;5.30;;;4.80;;
47239;SDS011;32978;53.586;10.052;2023-06-04T11:05:02;6.13;;;4.90;;
47239;SDS011;32978;53.586;10.052;2023-06-04T11:10:02;5.45;;;4.88;;
47239;SDS011;32978;53.586;10.052;2023-06-04T11:14:58;9.48;;;5.13;;
47239;SDS011;32978;53.586;10.052;2023-06-04T11:19:55;9.57;;;5.18;;
47239;SDS011;32978;53.586;10.052;2023-06-04T11:24:56;7.13;;;5.32;;
47239;SDS011;32978;53.586;10.052;2023-06-04T11:29:52;6.00;;;4.97;;
47239;SDS011;32978;53.586;10.052;2023-06-04T11:34:49;6.15;;;4.80;;
47239;SDS011;32978;53.586;10.052;2023-06-04T11:39:45;7.35;;;4.32;;
47239;SDS011;32978;53.586;10.052;2023-06-04T11:44:41;4.80;;;4.40;;
47239;SDS011;32978;53.586;10.052;2023-06-04T11:49:41;6.28;;;4.95;;
47239;SDS011;32978;53.586;10.052;2023-06-04T11:54:39;8.32;;;4.78;;
47239;SDS011;32978;53.586;10.052;2023-06-04T11:59:36;5.00;;;4.50;;
47239;SDS011;32978;53.586;10.052;2023-06-04T12:04:32;4.72;;;4.32;;
47239;SDS011;32978;53.586;10.052;2023-06-04T12:09:30;7.53;;;4.70;;
47239;SDS011;32978;53.586;10.052;2023-06-04T12:14:36;6.32;;;5.00;;
47239;SDS011;32978;53.586;10.052;2023-06-04T12:19:32;6.68;;;4.85;;
47239;SDS011;32978;53.586;10.052;2023-06-04T12:24:30;6.68;;;4.50;;
47239;SDS011;32978;53.586;10.052;2023-06-04T12:29:26;5.75;;;4.28;;
47239;SDS011;32978;53.586;10.052;2023-06-04T12:34:23;6.38;;;4.72;;
47239;SDS011;32978;53.586;10.052;2023-06-04T12:39:19;6.07;;;4.57;;
47239;SDS011;32978;53.586;10.052;2023-06-04T12:44:15;5.53;;;4.85;;
47239;SDS011;32978;53.586;10.052;2023-06-04T12:49:12;4.95;;;4.07;;
47239;SDS011;32978;53.586;10.052;2023-06-04T12:54:09;5.43;;;4.93;;
47239;SDS011;32978;53.586;10.052;2023-06-04T12:59:05;5.03;;;4.28;;
47239;SDS011;32978;53.586;10.052;2023-06-04T13:04:01;5.13;;;4.22;;
47239;SDS011;32978;53.586;10.052;2023-06-04T13:08:58;5.15;;;4.28;;
47239;SDS011;32978;53.586;10.052;2023-06-04T13:13:54;5.90;;;4.82;;
47239;SDS011;32978;53.586;10.052;2023-06-04T13:18:50;6.03;;;4.18;;
47239;SDS011;32978;53.586;10.052;2023-06-04T13:23:47;4.40;;;3.95;;
47239;SDS011;32978;53.586;10.052;2023-06-04T13:28:46;7.15;;;4.93;;
47239;SDS011;32978;53.586;10.052;2023-06-04T13:33:42;4.13;;;3.60;;
47239;SDS011;32978;53.586;10.052;2023-06-04T13:38:38;6.03;;;3.90;;
47239;SDS011;32978;53.586;10.052;2023-06-04T13:43:37;8.65;;;4.00;;
47239;SDS011;32978;53.586;10.052;2023-06-04T13:48:35;4.50;;;4.10;;
47239;SDS011;32978;53.586;10.052;2023-06-04T13:53:31;7.25;;;4.18;;
47239;SDS011;32978;53.586;10.052;2023-06-04T13:58:29;5.50;;;4.18;;
47239;SDS011;32978;53.586;10.052;2023-06-04T14:03:25;5.25;;;4.38;;
47239;SDS011;32978;53.586;10.052;2023-06-04T14:08:22;4.55;;;3.92;;
47239;SDS011;32978;53.586;10.052;2023-06-04T14:13:18;5.50;;;3.50;;
47239;SDS011;32978;53.586;10.052;2023-06-04T14:18:14;4.68;;;3.80;;
47239;SDS011;32978;53.586;10.052;2023-06-04T14:23:11;6.55;;;4.25;;
47239;SDS011;32978;53.586;10.052;2023-06-04T14:28:08;6.20;;;4.00;;
47239;SDS011;32978;53.586;10.052;2023-06-04T14:33:04;4.20;;;3.80;;
47239;SDS011;32978;53.586;10.052;2023-06-04T14:38:01;5.47;;;3.90;;
47239;SDS011;32978;53.586;10.052;2023-06-04T14:42:57;6.93;;;4.03;;
47239;SDS011;32978;53.586;10.052;2023-06-04T14:47:53;4.57;;;3.90;;
47239;SDS011;32978;53.586;10.052;2023-06-04T14:53:08;5.53;;;4.50;;
47239;SDS011;32978;53.586;10.052;2023-06-04T14:58:05;5.25;;;3.90;;
47239;SDS011;32978;53.586;10.052;2023-06-04T15:03:02;4.85;;;3.90;;
47239;SDS011;32978;53.586;10.052;2023-06-04T15:07:59;3.88;;;3.33;;
47239;SDS011;32978;53.586;10.052;2023-06-04T15:12:56;5.88;;;4.40;;
47239;SDS011;32978;53.586;10.052;2023-06-04T15:17:53;5.53;;;3.88;;
47239;SDS011;32978;53.586;10.052;2023-06-04T15:22:49;4.47;;;3.80;;
47239;SDS011;32978;53.586;10.052;2023-06-04T15:27:46;4.97;;;3.95;;
47239;SDS011;32978;53.586;10.052;2023-06-04T15:32:42;5.97;;;4.00;;
47239;SDS011;32978;53.586;10.052;2023-06-04T15:37:40;4.97;;;3.75;;
47239;SDS011;32978;53.586;10.052;2023-06-04T15:42:36;5.03;;;3.80;;
47239;SDS011;32978;53.586;10.052;2023-06-04T15:47:33;5.22;;;4.72;;
47239;SDS011;32978;53.586;10.052;2023-06-04T15:52:29;5.35;;;4.20;;
47239;SDS011;32978;53.586;10.052;2023-06-04T15:57:25;5.18;;;4.15;;
47239;SDS011;32978;53.586;10.052;2023-06-04T16:02:22;4.72;;;4.22;;
47239;SDS011;32978;53.586;10.052;2023-06-04T16:07:18;5.15;;;4.53;;
47239;SDS011;32978;53.586;10.052;2023-06-04T16:12:15;8.57;;;5.32;;
47239;SDS011;32978;53.586;10.052;2023-06-04T16:17:11;4.97;;;4.03;;
47239;SDS011;32978;53.586;10.052;2023-06-04T16:22:07;6.78;;;5.00;;
47239;SDS011;32978;53.586;10.052;2023-06-04T16:27:03;5.38;;;4.38;;
47239;SDS011;32978;53.586;10.052;2023-06-04T16:32:00;4.90;;;4.15;;
47239;SDS011;32978;53.586;10.052;2023-06-04T16:36:56;4.80;;;4.05;;
47239;SDS011;32978;53.586;10.052;2023-06-04T16:41:53;5.25;;;4.07;;
47239;SDS011;32978;53.586;10.052;2023-06-04T16:46:49;5.47;;;4.00;;
47239;SDS011;32978;53.586;10.052;2023-06-04T16:51:46;4.50;;;3.95;;
47239;SDS011;32978;53.586;10.052;2023-06-04T16:56:42;4.53;;;3.90;;
47239;SDS011;32978;53.586;10.052;2023-06-04T17:01:38;5.07;;;4.05;;
47239;SDS011;32978;53.586;10.052;2023-06-04T17:06:36;4.75;;;4.20;;
47239;SDS011;32978;53.586;10.052;2023-06-04T17:11:32;5.53;;;3.70;;
47239;SDS011;32978;53.586;10.052;2023-06-04T17:16:34;8.20;;;4.13;;
47239;SDS011;32978;53.586;10.052;2023-06-04T17:21:30;6.40;;;4.28;;
47239;SDS011;32978;53.586;10.052;2023-06-04T17:26:26;4.85;;;4.00;;
47239;SDS011;32978;53.586;10.052;2023-06-04T17:31:23;5.30;;;3.78;;
47239;SDS011;32978;53.586;10.052;2023-06-04T17:36:20;5.32;;;3.88;;
47239;SDS011;32978;53.586;10.052;2023-06-04T17:41:16;7.07;;;4.32;;
47239;SDS011;32978;53.586;10.052;2023-06-04T17:46:13;6.43;;;4.05;;
47239;SDS011;32978;53.586;10.052;2023-06-04T17:51:10;8.63;;;5.28;;
47239;SDS011;32978;53.586;10.052;2023-06-04T17:56:06;5.82;;;3.50;;
47239;SDS011;32978;53.586;10.052;2023-06-04T18:01:03;4.32;;;3.78;;
47239;SDS011;32978;53.586;10.052;2023-06-04T18:05:59;4.50;;;3.67;;
47239;SDS011;32978;53.586;10.052;2023-06-04T18:10:56;5.15;;;3.65;;
47239;SDS011;32978;53.586;10.052;2023-06-04T18:15:55;6.20;;;4.30;;
47239;SDS011;32978;53.586;10.052;2023-06-04T18:20:52;4.65;;;3.75;;
47239;SDS011;32978;53.586;10.052;2023-06-04T18:25:48;7.25;;;4.30;;
47239;SDS011;32978;53.586;10.052;2023-06-04T18:30:44;5.22;;;3.53;;
47239;SDS011;32978;53.586;10.052;2023-06-04T18:35:41;5.82;;;4.13;;
47239;SDS011;32978;53.586;10.052;2023-06-04T18:40:37;6.20;;;4.13;;
47239;SDS011;32978;53.586;10.052;2023-06-04T18:45:33;7.65;;;4.82;;
47239;SDS011;32978;53.586;10.052;2023-06-04T18:50:30;5.28;;;3.65;;
47239;SDS011;32978;53.586;10.052;2023-06-04T18:55:26;5.60;;;3.88;;
47239;SDS011;32978;53.586;10.052;2023-06-04T19:00:23;5.13;;;3.75;;
47239;SDS011;32978;53.586;10.052;2023-06-04T19:05:19;3.90;;;3.40;;
47239;SDS011;32978;53.586;10.052;2023-06-04T19:10:17;6.38;;;3.70;;
47239;SDS011;32978;53.586;10.052;2023-06-04T19:15:14;7.53;;;4.00;;
47239;SDS011;32978;53.586;10.052;2023-06-04T19:20:15;4.45;;;3.30;;
47239;SDS011;32978;53.586;10.052;2023-06-04T19:25:13;4.22;;;3.10;;
47239;SDS011;32978;53.586;10.052;2023-06-04T19:30:10;5.38;;;3.38;;
47239;SDS011;32978;53.586;10.052;2023-06-04T19:35:07;4.95;;;3.30;;
47239;SDS011;32978;53.586;10.052;2023-06-04T19:40:03;6.53;;;3.60;;
47239;SDS011;32978;53.586;10.052;2023-06-04T19:45:00;4.15;;;3.17;;
47239;SDS011;32978;53.586;10.052;2023-06-04T19:49:57;5.93;;;3.70;;
47239;SDS011;32978;53.586;10.052;2023-06-04T19:54:54;4.65;;;3.67;;
47239;SDS011;32978;53.586;10.052;2023-06-04T19:59:50;5.68;;;4.43;;
47239;SDS011;32978;53.586;10.052;2023-06-04T20:04:46;7.00;;;4.18;;
47239;SDS011;32978;53.586;10.052;2023-06-04T20:09:44;4.30;;;3.17;;
47239;SDS011;32978;53.586;10.052;2023-06-04T20:14:41;6.38;;;4.20;;
47239;SDS011;32978;53.586;10.052;2023-06-04T20:19:37;5.50;;;3.88;;
47239;SDS011;32978;53.586;10.052;2023-06-04T20:24:34;4.40;;;3.58;;
47239;SDS011;32978;53.586;10.052;2023-06-04T20:29:30;6.18;;;3.50;;
47239;SDS011;32978;53.586;10.052;2023-06-04T20:34:27;7.70;;;3.50;;
47239;SDS011;32978;53.586;10.052;2023-06-04T20:39:23;5.80;;;4.30;;
47239;SDS011;32978;53.586;10.052;2023-06-04T20:44:20;6.53;;;4.13;;
47239;SDS011;32978;53.586;10.052;2023-06-04T20:49:16;7.07;;;3.90;;
47239;SDS011;32978;53.586;10.052;2023-06-04T20:54:13;5.55;;;4.00;;
47239;SDS011;32978;53.586;10.052;2023-06-04T20:59:09;5.30;;;4.28;;
47239;SDS011;32978;53.586;10.052;2023-06-04T21:04:06;7.97;;;4.28;;
47239;SDS011;32978;53.586;10.052;2023-06-04T21:09:05;6.40;;;5.05;;
47239;SDS011;32978;53.586;10.052;2023-06-04T21:14:01;7.43;;;4.75;;
47239;SDS011;32978;53.586;10.052;2023-06-04T21:19:00;6.53;;;4.95;;
47239;SDS011;32978;53.586;10.052;2023-06-04T21:23:56;7.60;;;4.82;;
47239;SDS011;32978;53.586;10.052;2023-06-04T21:28:53;5.53;;;3.88;;
47239;SDS011;32978;53.586;10.052;2023-06-04T21:33:49;5.50;;;4.05;;
47239;SDS011;32978;53.586;10.052;2023-06-04T21:38:45;6.57;;;4.13;;
47239;SDS011;32978;53.586;10.052;2023-06-04T21:43:42;6.10;;;4.30;;
47239;SDS011;32978;53.586;10.052;2023-06-04T21:48:38;6.85;;;4.55;;
47239;SDS011;32978;53.586;10.052;2023-06-04T21:53:35;9.30;;;4.65;;
47239;SDS011;32978;53.586;10.052;2023-06-04T21:58:31;11.80;;;4.57;;
47239;SDS011;32978;53.586;10.052;2023-06-04T22:03:27;6.13;;;4.38;;
47239;SDS011;32978;53.586;10.052;2023-06-04T22:08:24;5.28;;;4.78;;
47239;SDS011;32978;53.586;10.052;2023-06-04T22:13:20;7.55;;;4.30;;
47239;SDS011;32978;53.586;10.052;2023-06-04T22:18:17;6.00;;;4.35;;
47239;SDS011;32978;53.586;10.052;2023-06-04T22:23:13;6.28;;;4.70;;
47239;SDS011;32978;53.586;10.052;2023-06-04T22:28:09;8.20;;;4.72;;
47239;SDS011;32978;53.586;10.052;2023-06-04T22:33:06;7.35;;;5.28;;
47239;SDS011;32978;53.586;10.052;2023-06-04T22:38:02;5.70;;;4.28;;
47239;SDS011;32978;53.586;10.052;2023-06-04T22:42:59;5.05;;;4.38;;
47239;SDS011;32978;53.586;10.052;2023-06-04T22:47:57;7.72;;;5.03;;
47239;SDS011;32978;53.586;10.052;2023-06-04T22:52:53;7.25;;;4.63;;
47239;SDS011;32978;53.586;10.052;2023-06-04T22:57:50;7.03;;;4.80;;
47239;SDS011;32978;53.586;10.052;2023-06-04T23:02:48;6.65;;;5.00;;
47239;SDS011;32978;53.586;10.052;2023-06-04T23:07:44;6.65;;;5.13;;
47239;SDS011;32978;53.586;10.052;2023-06-04T23:12:41;6.50;;;4.88;;
47239;SDS011;32978;53.586;10.052;2023-06-04T23:17:37;6.40;;;4.88;;
47239;SDS011;32978;53.586;10.052;2023-06-04T23:22:33;6.07;;;4.85;;
47239;SDS011;32978;53.586;10.052;2023-06-04T23:27:30;5.82;;;4.35;;
47239;SDS011;32978;53.586;10.052;2023-06-04T23:32:26;6.30;;;4.80;;
47239;SDS011;32978;53.586;10.052;2023-06-04T23:37:23;6.50;;;4.93;;
47239;SDS011;32978;53.586;10.052;2023-06-04T23:42:19;6.72;;;4.72;;
47239;SDS011;32978;53.586;10.052;2023-06-04T23:47:15;9.38;;;5.05;;
47239;SDS011;32978;53.586;10.052;2023-06-04T23:52:11;5.30;;;4.68;;
47239;SDS011;32978;53.586;10.052;2023-06-04T23:57:08;7.28;;;4.75;;
